Time;durP1;ratioP1;P1;durP2;ratioP2;P2;SDS_P1;SDS_P2;PMS_P1;PMS_P2;Temp;Humidity;BMP_temperature;BMP_pressure;BME280_temperature;BME280_humidity;BME280_pressure;Samples;Min_cycle;Max_cycle;Signal;HPM_P1;HPM_P2
2022/08/05 00:00:52;;;;;;;9.80;6.60;;;19.60;99.90;;;;;;4941310;29;20198;-89
2022/08/05 00:03:19;;;;;;;9.70;6.73;;;19.60;99.90;;;;;;4941547;29;20641;-89
2022/08/05 00:05:47;;;;;;;10.70;6.87;;;19.60;99.90;;;;;;4942137;29;20308;-87
2022/08/05 00:08:35;;;;;;;9.87;6.60;;;19.60;99.90;;;;;;4915568;29;20228;-89
2022/08/05 00:11:09;;;;;;;14.23;7.07;;;19.50;99.90;;;;;;4949076;29;20203;-85
2022/08/05 00:13:56;;;;;;;9.73;6.40;;;19.50;99.90;;;;;;4961660;29;20198;-90
2022/08/05 00:16:23;;;;;;;11.60;7.50;;;19.40;99.90;;;;;;4945880;29;20300;-91
2022/08/05 00:19:32;;;;;;;11.13;6.43;;;19.50;99.90;;;;;;4938827;29;20223;-92
2022/08/05 00:22:19;;;;;;;12.37;6.60;;;19.40;99.90;;;;;;4922478;29;20191;-88
2022/08/05 00:25:56;;;;;;;9.27;6.50;;;19.40;99.90;;;;;;4922499;29;20626;-85
2022/08/05 00:28:55;;;;;;;8.00;6.20;;;19.50;99.90;;;;;;4953255;23;20249;-85
2022/08/05 00:31:23;;;;;;;9.10;6.30;;;19.40;99.90;;;;;;4941767;29;20641;-85
2022/08/05 00:34:13;;;;;;;12.67;6.27;;;19.40;99.90;;;;;;4957789;29;20194;-83
2022/08/05 00:37:00;;;;;;;11.43;6.17;;;19.40;99.90;;;;;;4941435;29;20640;-85
2022/08/05 00:39:41;;;;;;;9.93;6.20;;;19.40;99.90;;;;;;4948937;23;20237;-83
2022/08/05 00:45:59;;;;;;;8.20;5.53;;;19.40;99.90;;;;;;4970734;23;20230;-85
2022/08/05 00:52:19;;;;;;;7.57;5.60;;;19.50;99.90;;;;;;4939794;29;20202;-84
2022/08/05 00:54:54;;;;;;;13.97;6.23;;;19.40;99.90;;;;;;4941182;29;20205;-82
2022/08/05 00:57:29;;;;;;;9.77;5.53;;;19.50;99.90;;;;;;4923987;29;20284;-85
2022/08/05 01:00:13;;;;;;;9.73;5.83;;;19.40;99.90;;;;;;4939508;29;20199;-82
2022/08/05 01:03:16;;;;;;;10.10;5.77;;;19.50;99.90;;;;;;4826494;29;20277;-86
2022/08/05 01:08:49;;;;;;;10.77;5.90;;;19.40;99.90;;;;;;5098260;23;20579;-84
2022/08/05 01:11:21;;;;;;;9.57;5.70;;;19.40;99.90;;;;;;4923566;29;20206;-88
2022/08/05 01:14:06;;;;;;;8.03;5.87;;;19.40;99.90;;;;;;4939564;29;20289;-84
2022/08/05 01:16:44;;;;;;;8.03;5.80;;;19.40;99.90;;;;;;4939918;29;20210;-82
2022/08/05 01:19:21;;;;;;;10.47;5.67;;;19.40;99.90;;;;;;4934775;29;20321;-81
2022/08/05 01:22:41;;;;;;;10.00;5.83;;;19.40;99.90;;;;;;4920586;29;20195;-85
2022/08/05 01:25:34;;;;;;;8.07;6.20;;;19.40;99.90;;;;;;4905381;29;20209;-86
2022/08/05 01:28:26;;;;;;;7.70;5.80;;;19.40;99.90;;;;;;4919911;29;20230;-85
2022/08/05 01:31:14;;;;;;;7.70;6.10;;;19.30;99.90;;;;;;5422816;23;20237;-83
2022/08/05 01:34:10;;;;;;;10.33;6.07;;;19.20;99.90;;;;;;4938800;29;20309;-83
2022/08/05 01:36:46;;;;;;;8.90;6.37;;;19.20;99.90;;;;;;4939300;29;20206;-84
2022/08/05 01:39:15;;;;;;;10.17;6.13;;;19.20;99.90;;;;;;4938874;29;20204;-84
2022/08/05 01:42:05;;;;;;;12.43;6.03;;;19.20;99.90;;;;;;4956266;29;20283;-82
2022/08/05 01:44:37;;;;;;;6.83;5.90;;;19.10;99.90;;;;;;4923673;29;20194;-85
2022/08/05 01:47:05;;;;;;;13.30;6.60;;;19.10;99.90;;;;;;4938547;29;20206;-82
2022/08/05 01:49:38;;;;;;;6.97;5.83;;;19.10;99.90;;;;;;4939532;29;20202;-81
2022/08/05 01:52:26;;;;;;;8.33;6.00;;;19.00;99.90;;;;;;4941515;28;20194;-83
2022/08/05 01:54:58;;;;;;;8.10;6.03;;;19.00;99.90;;;;;;4955333;29;20209;-84
2022/08/05 01:57:29;;;;;;;8.87;5.97;;;19.00;99.90;;;;;;4956239;29;20707;-82
2022/08/05 02:00:17;;;;;;;10.73;6.20;;;19.00;99.90;;;;;;4956433;28;20652;-85
2022/08/05 02:03:07;;;;;;;14.33;6.80;;;19.00;99.90;;;;;;4922765;29;20576;-81
2022/08/05 02:05:54;;;;;;;7.77;5.87;;;18.90;99.90;;;;;;4957329;29;20225;-81
2022/08/05 02:08:23;;;;;;;11.20;6.30;;;18.80;99.90;;;;;;4943455;29;20230;-84
2022/08/05 02:11:09;;;;;;;13.10;6.60;;;18.80;99.90;;;;;;4923383;29;20301;-82
2022/08/05 02:13:41;;;;;;;10.07;6.23;;;18.90;99.90;;;;;;4938426;29;20194;-82
2022/08/05 02:16:54;;;;;;;8.63;6.37;;;18.80;99.90;;;;;;4939206;29;20201;-84
2022/08/05 02:19:27;;;;;;;10.17;5.80;;;18.80;99.90;;;;;;4859340;29;20320;-85
2022/08/05 02:21:58;;;;;;;9.87;6.70;;;18.80;99.90;;;;;;4843908;29;20205;-84
2022/08/05 02:24:31;;;;;;;9.60;6.30;;;18.80;99.90;;;;;;4911032;23;20234;-84
2022/08/05 02:27:02;;;;;;;8.83;6.07;;;18.70;99.90;;;;;;4922700;29;20272;-84
2022/08/05 02:29:41;;;;;;;11.63;6.50;;;18.70;99.90;;;;;;4956055;29;20194;-89
2022/08/05 02:32:29;;;;;;;10.07;6.47;;;18.70;99.90;;;;;;4960951;29;20214;-84
2022/08/05 02:35:08;;;;;;;9.20;6.30;;;18.70;99.90;;;;;;4947357;29;20516;-84
2022/08/05 02:37:42;;;;;;;9.17;6.30;;;18.70;99.90;;;;;;4955808;29;20202;-85
2022/08/05 02:40:21;;;;;;;8.83;6.67;;;18.60;99.90;;;;;;4938361;29;20209;-85
2022/08/05 02:43:04;;;;;;;8.37;6.27;;;18.60;99.90;;;;;;4938500;29;20186;-84
2022/08/05 02:45:34;;;;;;;10.03;6.33;;;18.60;99.90;;;;;;4938593;29;20202;-85
2022/08/05 02:48:21;;;;;;;8.53;6.23;;;18.60;99.90;;;;;;4938312;29;20222;-86
2022/08/05 02:51:01;;;;;;;7.03;6.10;;;18.60;99.90;;;;;;4938770;29;20193;-85
2022/08/05 02:53:30;;;;;;;8.10;6.90;;;18.60;99.90;;;;;;4938521;29;20206;-84
2022/08/05 02:56:12;;;;;;;10.53;6.57;;;18.60;99.90;;;;;;4955549;29;20625;-83
2022/08/05 02:58:45;;;;;;;11.90;6.83;;;18.60;99.90;;;;;;4939187;29;20198;-84
2022/08/05 03:01:24;;;;;;;10.33;6.77;;;18.60;99.90;;;;;;4938290;29;20319;-83
2022/08/05 03:03:56;;;;;;;11.60;6.80;;;18.50;99.90;;;;;;4937979;29;20293;-83
2022/08/05 03:06:37;;;;;;;8.80;6.53;;;18.50;99.90;;;;;;4954599;29;20703;-85
2022/08/05 03:09:24;;;;;;;10.97;6.60;;;18.50;99.90;;;;;;4955452;29;20576;-85
2022/08/05 03:12:04;;;;;;;9.37;6.97;;;18.50;99.90;;;;;;4938056;29;20280;-86
2022/08/05 03:14:31;;;;;;;10.63;6.90;;;18.50;99.90;;;;;;4938325;29;20228;-86
2022/08/05 03:16:59;;;;;;;35.23;9.80;;;18.50;99.90;;;;;;4938528;29;20249;-87
2022/08/05 03:19:26;;;;;;;9.43;6.70;;;18.50;99.90;;;;;;4934393;29;20331;-86
2022/08/05 03:22:00;;;;;;;8.00;6.90;;;18.40;99.90;;;;;;4921920;29;20199;-86
2022/08/05 03:24:28;;;;;;;11.97;7.40;;;18.40;99.90;;;;;;4919833;29;20238;-84
2022/08/05 03:26:57;;;;;;;8.80;6.97;;;18.40;99.90;;;;;;4918944;29;20199;-84
2022/08/05 03:29:25;;;;;;;12.17;6.90;;;18.40;99.90;;;;;;4918663;29;20247;-85
2022/08/05 03:32:14;;;;;;;10.20;7.07;;;18.40;99.90;;;;;;4935677;29;20191;-85
2022/08/05 03:34:42;;;;;;;11.00;6.83;;;18.40;99.90;;;;;;4935691;29;20205;-85
2022/08/05 03:37:18;;;;;;;7.83;6.13;;;18.40;99.90;;;;;;4919062;29;20195;-90
2022/08/05 03:39:56;;;;;;;10.30;6.77;;;18.40;99.90;;;;;;4918924;29;20218;-86
2022/08/05 03:42:28;;;;;;;21.57;7.57;;;18.50;99.90;;;;;;4918978;29;20302;-87
2022/08/05 03:44:58;;;;;;;12.10;6.70;;;18.40;99.90;;;;;;4919781;29;20199;-83
2022/08/05 03:47:29;;;;;;;11.33;7.17;;;18.40;99.90;;;;;;4918954;29;20203;-84
2022/08/05 03:50:07;;;;;;;8.67;6.67;;;18.50;99.90;;;;;;4919446;29;20242;-86
2022/08/05 03:52:43;;;;;;;11.93;7.10;;;18.60;99.90;;;;;;4936068;29;20226;-84
2022/08/05 03:55:36;;;;;;;9.43;6.73;;;18.50;99.90;;;;;;4938372;29;20198;-83
2022/08/05 03:58:26;;;;;;;10.00;6.80;;;18.60;99.90;;;;;;4914752;29;20207;-85
2022/08/05 04:00:58;;;;;;;8.90;7.00;;;18.60;99.90;;;;;;4919301;29;20195;-86
2022/08/05 04:03:27;;;;;;;8.07;6.50;;;18.70;99.90;;;;;;4935475;29;20191;-83
2022/08/05 04:05:56;;;;;;;11.17;7.07;;;18.70;99.90;;;;;;4918414;29;20202;-81
2022/08/05 04:08:25;;;;;;;11.00;7.27;;;18.80;99.90;;;;;;4918752;29;20544;-80
2022/08/05 04:11:09;;;;;;;8.57;6.80;;;18.80;99.90;;;;;;4918594;29;20206;-82
2022/08/05 04:13:40;;;;;;;11.43;7.57;;;18.80;99.90;;;;;;4936833;29;20196;-81
2022/08/05 04:16:25;;;;;;;16.50;7.63;;;18.90;99.90;;;;;;4921118;29;20215;-83
2022/08/05 04:18:58;;;;;;;13.70;7.40;;;19.00;99.90;;;;;;4938971;29;20286;-82
2022/08/05 04:21:27;;;;;;;10.07;7.43;;;19.00;99.90;;;;;;4939099;29;20191;-81
2022/08/05 04:24:15;;;;;;;8.47;6.43;;;19.00;99.90;;;;;;4921741;29;20227;-82
2022/08/05 04:26:48;;;;;;;8.90;6.50;;;19.10;99.90;;;;;;4907179;29;20246;-84
2022/08/05 04:29:15;;;;;;;9.83;7.03;;;19.10;99.90;;;;;;4975916;23;20285;-86
2022/08/05 04:31:42;;;;;;;10.90;6.97;;;19.20;99.90;;;;;;4959998;28;20555;-84
2022/08/05 04:34:11;;;;;;;8.00;6.93;;;19.30;99.90;;;;;;4977394;28;20190;-84
2022/08/05 04:36:57;;;;;;;8.50;6.73;;;19.30;99.90;;;;;;4962928;28;20194;-85
2022/08/05 04:39:26;;;;;;;15.07;7.70;;;19.30;99.90;;;;;;4976792;28;20272;-83
2022/08/05 04:41:53;;;;;;;9.77;6.50;;;19.50;99.90;;;;;;4960688;28;20229;-81
2022/08/05 04:44:27;;;;;;;14.57;7.97;;;19.50;99.90;;;;;;4960990;28;20236;-81
2022/08/05 04:46:59;;;;;;;8.87;7.20;;;19.60;99.90;;;;;;4946222;28;20197;-84
2022/08/05 04:49:37;;;;;;;9.43;7.03;;;19.70;99.90;;;;;;4976585;28;20267;-84
2022/08/05 04:52:24;;;;;;;8.53;6.77;;;19.70;99.90;;;;;;4967736;23;20230;-82
2022/08/05 04:54:53;;;;;;;10.70;6.80;;;19.80;99.90;;;;;;4940124;29;20293;-83
2022/08/05 04:57:24;;;;;;;11.73;7.23;;;19.80;99.90;;;;;;4939774;29;20198;-83
2022/08/05 05:00:04;;;;;;;10.50;7.00;;;19.90;99.90;;;;;;4939946;29;20509;-84
2022/08/05 05:02:39;;;;;;;9.37;7.03;;;20.00;99.90;;;;;;4939421;29;20238;-81
2022/08/05 05:05:09;;;;;;;11.63;7.70;;;20.10;99.90;;;;;;4924608;29;20245;-84
2022/08/05 05:07:59;;;;;;;8.87;6.90;;;20.10;99.90;;;;;;4939763;29;20198;-83
2022/08/05 05:10:32;;;;;;;9.93;7.10;;;20.10;99.90;;;;;;4924266;29;20262;-85
2022/08/05 05:13:00;;;;;;;9.23;7.40;;;20.20;99.90;;;;;;4956469;29;20555;-84
2022/08/05 05:15:30;;;;;;;10.10;7.90;;;20.30;99.90;;;;;;4956817;29;20186;-83
2022/08/05 05:18:17;;;;;;;11.90;7.63;;;20.40;99.90;;;;;;4939256;29;20636;-83
2022/08/05 05:21:00;;;;;;;12.33;8.03;;;20.40;99.90;;;;;;4907667;29;20222;-84
2022/08/05 05:23:29;;;;;;;13.60;8.13;;;20.50;99.90;;;;;;4923224;29;20703;-84
2022/08/05 05:26:16;;;;;;;10.83;8.40;;;20.50;99.90;;;;;;4959384;23;20244;-85
2022/08/05 05:28:43;;;;;;;12.87;8.70;;;20.50;99.90;;;;;;4955650;28;20215;-84
2022/08/05 05:31:13;;;;;;;10.43;8.97;;;20.60;99.90;;;;;;4956296;29;20249;-84
2022/08/05 05:33:44;;;;;;;11.83;9.27;;;20.60;99.90;;;;;;4956271;29;20202;-85
2022/08/05 05:36:27;;;;;;;15.37;9.23;;;20.70;99.90;;;;;;4939417;29;20562;-83
2022/08/05 05:38:56;;;;;;;14.97;9.53;;;20.80;99.90;;;;;;4956267;28;20755;-84
2022/08/05 05:41:23;;;;;;;15.20;9.10;;;20.90;99.90;;;;;;4955127;29;20236;-84
2022/08/05 05:43:50;;;;;;;11.97;9.20;;;21.00;99.90;;;;;;4938766;29;20198;-83
2022/08/05 05:46:26;;;;;;;14.13;9.47;;;21.10;99.90;;;;;;4956073;29;20651;-82
2022/08/05 05:48:53;;;;;;;13.93;9.30;;;21.20;99.90;;;;;;4956371;29;20222;-83
2022/08/05 05:51:21;;;;;;;10.53;8.80;;;21.30;99.90;;;;;;4938612;29;20225;-82
2022/08/05 05:53:50;;;;;;;12.03;8.67;;;21.40;99.90;;;;;;4938692;29;20195;-84
2022/08/05 05:56:29;;;;;;;11.53;8.33;;;21.50;99.90;;;;;;4938955;29;20722;-83
2022/08/05 05:59:04;;;;;;;11.93;7.90;;;21.70;99.90;;;;;;4955962;29;20616;-83
2022/08/05 06:01:35;;;;;;;14.73;9.43;;;21.80;99.90;;;;;;4938414;29;20222;-84
2022/08/05 06:04:10;;;;;;;13.17;8.53;;;21.90;99.90;;;;;;4938708;29;20636;-83
2022/08/05 06:06:40;;;;;;;10.90;8.60;;;22.10;99.90;;;;;;4938656;29;20220;-84
2022/08/05 06:09:08;;;;;;;10.50;7.97;;;22.20;99.90;;;;;;4955579;29;20561;-82
2022/08/05 06:11:44;;;;;;;8.93;7.80;;;22.30;99.90;;;;;;4938133;29;20209;-84
2022/08/05 06:14:26;;;;;;;8.93;7.77;;;22.40;99.90;;;;;;4955782;29;20627;-86
2022/08/05 06:16:54;;;;;;;12.00;8.13;;;22.50;99.90;;;;;;4954676;29;20198;-84
2022/08/05 06:19:22;;;;;;;10.80;8.70;;;22.70;99.90;;;;;;4933622;29;20230;-84
2022/08/05 06:22:19;;;;;;;10.60;8.85;;;22.80;99.90;;;;;;4919564;29;20669;-85
2022/08/05 06:24:46;;;;;;;10.57;8.68;;;22.90;99.90;;;;;;4936332;29;20234;-85
2022/08/05 06:27:14;;;;;;;11.37;8.23;;;23.00;99.90;;;;;;4919282;29;20202;-84
2022/08/05 06:30:03;;;;;;;11.07;7.88;;;23.00;99.90;;;;;;4937179;29;20223;-83
2022/08/05 06:32:47;;;;;;;15.20;7.88;;;23.10;99.90;;;;;;4918761;29;20195;-83
2022/08/05 06:39:28;;;;;;;11.05;8.45;;;23.30;99.90;;;;;;4918963;29;20282;-82
2022/08/05 06:42:01;;;;;;;12.23;8.82;;;23.40;99.90;;;;;;4919473;29;20195;-84
2022/08/05 06:44:35;;;;;;;10.63;8.30;;;23.50;99.90;;;;;;4919299;29;20195;-85
2022/08/05 06:47:05;;;;;;;10.60;8.15;;;23.60;99.90;;;;;;4936728;29;20254;-85
2022/08/05 06:49:36;;;;;;;11.73;8.33;;;23.70;99.90;;;;;;4936294;29;20218;-85
2022/08/05 06:52:28;;;;;;;10.30;8.07;;;23.80;99.90;;;;;;4918498;29;20298;-84
2022/08/05 06:55:06;;;;;;;12.13;7.90;;;24.00;99.90;;;;;;4919357;29;20206;-82
2022/08/05 06:57:42;;;;;;;8.95;7.30;;;24.10;99.90;;;;;;4919414;29;20244;-83
2022/08/05 07:00:30;;;;;;;10.63;7.32;;;24.00;99.90;;;;;;4936242;29;20672;-82
2022/08/05 07:03:10;;;;;;;8.65;6.65;;;24.10;99.90;;;;;;4918903;29;20560;-84
2022/08/05 07:05:37;;;;;;;11.07;7.80;;;24.20;99.90;;;;;;4918638;29;20210;-85
2022/08/05 07:08:12;;;;;;;13.07;7.70;;;24.20;99.90;;;;;;4919618;29;20539;-84
2022/08/05 07:10:39;;;;;;;12.93;7.40;;;24.20;99.90;;;;;;4919006;29;20250;-82
2022/08/05 07:19:31;;;;;;;8.43;6.80;;;24.60;99.90;;;;;;4912845;29;20230;-83
2022/08/05 07:22:21;;;;;;;8.02;6.32;;;24.60;99.90;;;;;;4916810;29;20226;-86
2022/08/05 07:24:57;;;;;;;9.23;6.45;;;24.70;99.90;;;;;;4899869;29;20603;-82
2022/08/05 07:27:24;;;;;;;10.50;6.53;;;24.80;99.90;;;;;;4884451;29;20227;-83
2022/08/05 07:30:16;;;;;;;6.93;6.22;;;24.90;99.90;;;;;;4900112;29;20715;-89
2022/08/05 07:33:03;;;;;;;7.03;5.72;;;24.90;99.90;;;;;;4899590;29;20604;-83
2022/08/05 07:35:34;;;;;;;10.63;6.40;;;25.00;99.90;;;;;;4909754;23;20653;-84
2022/08/05 07:38:33;;;;;;;7.20;6.30;;;25.20;99.90;;;;;;4918816;29;20713;-83
2022/08/05 07:41:29;;;;;;;7.13;6.20;;;25.30;99.90;;;;;;4890199;29;20206;-79
2022/08/05 07:44:16;;;;;;;9.90;6.40;;;25.30;99.90;;;;;;4935443;29;20646;-78
2022/08/05 07:46:46;;;;;;;7.72;5.95;;;25.40;99.90;;;;;;4918717;29;20198;-79
2022/08/05 07:49:19;;;;;;;8.55;6.20;;;25.60;99.90;;;;;;4935302;29;20226;-85
2022/08/05 07:51:46;;;;;;;9.05;6.18;;;25.70;99.90;;;;;;4938020;29;20588;-82
2022/08/05 07:54:26;;;;;;;9.77;5.85;;;25.80;99.90;;;;;;4922071;29;20230;-80
2022/08/05 07:56:57;;;;;;;8.43;6.20;;;25.80;99.90;;;;;;4921750;29;20195;-80
2022/08/05 07:59:40;;;;;;;7.20;5.50;;;25.80;99.90;;;;;;4922233;29;20195;-82
2022/08/05 08:02:09;;;;;;;7.30;5.75;;;25.90;99.90;;;;;;4921876;29;20204;-81
2022/08/05 08:04:47;;;;;;;6.55;5.78;;;26.00;99.90;;;;;;4922232;29;20202;-78
2022/08/05 08:07:16;;;;;;;6.43;5.72;;;26.00;99.90;;;;;;4908652;29;20286;-75
2022/08/05 08:09:52;;;;;;;8.18;5.90;;;26.00;99.90;;;;;;4904654;29;20302;-78
2022/08/05 08:12:21;;;;;;;8.15;6.40;;;26.10;99.90;;;;;;4923339;29;20237;-76
2022/08/05 08:15:08;;;;;;;7.50;6.03;;;26.10;99.90;;;;;;4909336;29;20203;-78
2022/08/05 08:17:42;;;;;;;9.07;6.30;;;26.20;99.90;;;;;;4908724;29;20290;-81
2022/08/05 08:20:22;;;;;;;8.35;6.72;;;26.80;99.90;;;;;;4910235;29;20219;-76
2022/08/05 08:23:09;;;;;;;6.03;5.43;;;27.90;99.90;;;;;;4891709;29;20672;-79
2022/08/05 08:25:56;;;;;;;6.97;6.00;;;29.10;99.90;;;;;;4892067;29;20200;-79
2022/08/05 08:28:29;;;;;;;7.65;5.63;;;30.40;99.90;;;;;;4898306;29;20200;-78
2022/08/05 08:31:08;;;;;;;7.63;5.35;;;31.10;99.90;;;;;;4897002;29;20202;-80
2022/08/05 08:33:39;;;;;;;9.88;5.82;;;31.80;99.90;;;;;;4898576;29;20264;-80
2022/08/05 08:36:07;;;;;;;5.90;4.95;;;31.90;99.90;;;;;;4900179;29;20235;-77
2022/08/05 08:38:55;;;;;;;7.82;4.78;;;31.90;99.90;;;;;;4899793;29;20250;-79
2022/08/05 08:41:25;;;;;;;6.82;5.05;;;32.10;99.90;;;;;;4906053;29;20202;-77
2022/08/05 08:44:18;;;;;;;12.25;5.45;;;32.40;99.90;;;;;;4883806;29;20639;-79
2022/08/05 08:47:06;;;;;;;9.88;5.10;;;32.80;99.90;;;;;;4902881;29;20200;-76
2022/08/05 08:50:20;;;;;;;8.73;4.22;;;32.60;99.90;;;;;;4898805;29;20224;-80
2022/08/05 08:53:10;;;;;;;9.90;4.43;;;32.80;99.90;;;;;;4901067;29;20196;-81
2022/08/05 08:55:44;;;;;;;6.68;4.55;;;33.20;98.50;;;;;;4898426;29;20218;-84
2022/08/05 08:58:31;;;;;;;4.97;4.30;;;33.20;98.50;;;;;;4888779;29;20563;-83
2022/08/05 09:01:10;;;;;;;6.35;4.32;;;32.80;96.60;;;;;;4887622;29;20851;-82
2022/08/05 09:03:55;;;;;;;4.85;4.10;;;33.00;96.80;;;;;;4897852;29;20208;-81
2022/08/05 09:06:45;;;;;;;5.93;4.47;;;32.80;97.00;;;;;;4875914;29;20582;-82
2022/08/05 09:09:15;;;;;;;4.82;4.40;;;32.30;96.60;;;;;;4896921;29;20240;-83
2022/08/05 09:11:43;;;;;;;5.40;4.60;;;32.30;97.30;;;;;;4902029;29;20278;-78
2022/08/05 09:14:20;;;;;;;5.80;4.45;;;32.50;97.30;;;;;;4894083;29;20203;-81
2022/08/05 09:17:11;;;;;;;5.47;4.90;;;32.80;96.50;;;;;;4891350;29;20286;-87
2022/08/05 09:20:21;;;;;;;4.90;4.40;;;32.80;97.10;;;;;;4887954;29;20324;-84
2022/08/05 09:23:10;;;;;;;4.57;4.18;;;33.00;96.00;;;;;;4894042;29;20204;-80
2022/08/05 09:25:50;;;;;;;7.20;4.22;;;33.30;94.30;;;;;;4885625;29;20646;-81
2022/08/05 09:28:33;;;;;;;8.60;4.53;;;33.20;95.50;;;;;;4899950;29;20234;-80
2022/08/05 09:31:11;;;;;;;5.47;4.55;;;33.50;94.50;;;;;;4900195;29;20235;-83
2022/08/05 09:34:10;;;;;;;5.68;3.88;;;33.70;95.00;;;;;;4899197;29;20667;-78
2022/08/05 09:36:41;;;;;;;4.47;3.90;;;34.00;92.40;;;;;;4903561;29;20802;-82
2022/08/05 09:39:24;;;;;;;4.75;3.95;;;33.20;92.70;;;;;;4888030;29;20200;-81
2022/08/05 09:42:14;;;;;;;3.88;3.58;;;33.20;93.60;;;;;;4896535;29;20204;-82
2022/08/05 09:45:04;;;;;;;5.35;3.90;;;33.60;92.80;;;;;;4894138;29;20204;-82
2022/08/05 09:47:51;;;;;;;4.50;3.80;;;33.80;90.90;;;;;;4907342;29;20276;-81
2022/08/05 09:50:36;;;;;;;4.15;3.72;;;33.60;91.00;;;;;;4899288;29;20287;-83
2022/08/05 09:53:11;;;;;;;7.22;4.20;;;33.60;91.20;;;;;;4892050;29;20193;-79
2022/08/05 09:56:01;;;;;;;6.05;3.90;;;33.80;91.60;;;;;;4893225;29;20196;-82
2022/08/05 09:58:38;;;;;;;4.38;3.95;;;34.10;90.50;;;;;;4879696;29;20674;-80
2022/08/05 10:01:39;;;;;;;8.98;4.40;;;34.00;89.70;;;;;;4902120;29;20200;-79
2022/08/05 10:05:03;;;;;;;9.32;3.85;;;34.20;89.60;;;;;;4804838;29;20332;-82
2022/08/05 10:07:54;;;;;;;6.53;3.75;;;34.40;87.00;;;;;;4824730;29;20282;-83
2022/08/05 10:10:43;;;;;;;7.53;3.95;;;34.40;87.10;;;;;;4826816;29;20242;-80
2022/08/05 10:13:28;;;;;;;4.47;3.70;;;34.60;86.20;;;;;;4824475;29;20214;-80
2022/08/05 10:16:33;;;;;;;12.02;4.40;;;34.30;84.10;;;;;;4809404;29;20203;-83
2022/08/05 10:19:10;;;;;;;21.25;4.95;;;34.40;84.50;;;;;;4825869;29;20627;-83
2022/08/05 10:21:41;;;;;;;5.40;4.07;;;34.50;84.80;;;;;;4920680;23;20239;-86
2022/08/05 10:24:12;;;;;;;6.32;4.07;;;34.40;82.80;;;;;;4912897;29;20283;-83
2022/08/05 10:26:42;;;;;;;11.27;3.88;;;34.40;85.00;;;;;;4898765;29;21733;-80
2022/08/05 10:29:21;;;;;;;7.85;3.90;;;34.50;84.40;;;;;;4896844;29;20208;-81
2022/08/05 10:32:26;;;;;;;7.95;4.07;;;34.90;82.70;;;;;;4898804;29;20210;-82
2022/08/05 10:35:20;;;;;;;6.63;3.80;;;35.60;81.70;;;;;;4895046;29;20226;-83
2022/08/05 10:38:08;;;;;;;5.05;3.88;;;35.60;80.60;;;;;;4896616;29;20207;-81
2022/08/05 10:40:52;;;;;;;6.55;3.90;;;35.50;78.60;;;;;;4914668;29;20208;-79
2022/08/05 10:43:33;;;;;;;5.30;3.90;;;35.60;79.70;;;;;;4913922;29;20200;-85
2022/08/05 10:46:06;;;;;;;11.40;3.75;;;35.60;79.90;;;;;;4913444;29;20195;-78
2022/08/05 10:48:43;;;;;;;6.57;4.40;;;36.30;79.10;;;;;;4913730;29;20286;-82
2022/08/05 10:51:24;;;;;;;8.68;3.97;;;36.40;76.90;;;;;;4910744;29;20220;-77
2022/08/05 10:53:59;;;;;;;4.53;3.90;;;36.00;77.90;;;;;;4885217;29;20258;-79
2022/08/05 10:56:55;;;;;;;5.50;3.90;;;35.70;77.60;;;;;;4897334;29;20195;-82
2022/08/05 10:59:27;;;;;;;14.48;4.60;;;36.20;76.90;;;;;;4897685;29;20252;-80
2022/08/05 11:02:14;;;;;;;7.03;4.00;;;36.30;77.60;;;;;;4913284;29;20207;-83
2022/08/05 11:05:10;;;;;;;6.60;3.72;;;36.30;74.40;;;;;;4897465;29;20287;-81
2022/08/05 11:08:08;;;;;;;6.80;3.92;;;36.70;74.20;;;;;;4896339;29;20562;-80
2022/08/05 11:11:34;;;;;;;4.95;3.92;;;36.90;73.90;;;;;;4897504;29;20593;-81
2022/08/05 11:14:32;;;;;;;5.47;3.58;;;37.40;72.70;;;;;;4882120;29;20192;-82
2022/08/05 11:17:32;;;;;;;6.57;3.78;;;37.50;69.00;;;;;;4892607;29;20226;-83
2022/08/05 11:20:46;;;;;;;9.23;4.47;;;37.40;69.90;;;;;;4910101;29;20275;-83
2022/08/05 11:23:42;;;;;;;5.15;4.00;;;36.90;70.80;;;;;;4909950;29;20290;-84
2022/08/05 11:26:29;;;;;;;5.00;4.10;;;36.80;71.20;;;;;;4915864;29;20210;-80
2022/08/05 11:29:04;;;;;;;14.88;4.97;;;36.90;70.80;;;;;;4900493;29;20557;-83
2022/08/05 11:31:43;;;;;;;5.63;3.85;;;37.30;70.60;;;;;;4920260;29;20693;-84
2022/08/05 11:34:37;;;;;;;4.05;3.42;;;37.50;69.30;;;;;;4920552;29;20191;-87
2022/08/05 11:37:05;;;;;;;6.88;4.40;;;37.70;68.60;;;;;;4918927;29;20199;-85
2022/08/05 11:39:52;;;;;;;8.20;4.72;;;37.90;67.20;;;;;;4903298;29;20564;-81
2022/08/05 11:42:26;;;;;;;6.75;4.03;;;37.60;68.60;;;;;;4920085;29;20230;-81
2022/08/05 11:45:02;;;;;;;10.50;4.30;;;37.90;66.60;;;;;;4897709;29;20327;-77
2022/08/05 11:47:34;;;;;;;4.50;3.80;;;38.10;66.80;;;;;;4914680;29;20219;-78
2022/08/05 11:50:16;;;;;;;4.53;4.00;;;37.80;66.10;;;;;;4914312;29;20696;-81
2022/08/05 11:52:43;;;;;;;6.70;3.88;;;37.70;65.10;;;;;;4903017;29;20204;-83
2022/08/05 11:55:12;;;;;;;4.85;4.10;;;37.30;66.60;;;;;;4888979;29;20225;-82
2022/08/05 11:57:45;;;;;;;9.77;4.28;;;37.30;66.50;;;;;;4910260;29;20222;-79
2022/08/05 12:00:32;;;;;;;7.57;4.30;;;37.20;67.10;;;;;;4884068;29;20193;-81
2022/08/05 12:03:16;;;;;;;7.03;4.13;;;37.20;67.10;;;;;;4884153;29;20243;-79
2022/08/05 12:06:03;;;;;;;7.28;4.30;;;37.20;66.70;;;;;;4906980;29;20203;-84
2022/08/05 12:08:43;;;;;;;10.65;5.13;;;36.70;67.40;;;;;;4901136;29;20204;-77
2022/08/05 12:11:27;;;;;;;7.40;4.45;;;37.00;67.10;;;;;;4884168;29;20220;-72
2022/08/05 12:14:07;;;;;;;7.43;4.50;;;37.10;66.30;;;;;;4883445;29;20192;-71
2022/08/05 12:16:43;;;;;;;6.10;4.38;;;37.50;66.50;;;;;;4900475;29;20223;-71
2022/08/05 12:19:13;;;;;;;4.60;4.20;;;37.90;66.00;;;;;;4883872;29;20199;-72
2022/08/05 12:22:00;;;;;;;8.50;5.13;;;38.50;65.40;;;;;;4883423;29;20236;-74
2022/08/05 12:24:27;;;;;;;6.93;4.85;;;38.50;62.20;;;;;;4884038;29;20568;-71
2022/08/05 12:26:56;;;;;;;7.10;4.75;;;38.70;62.00;;;;;;4900424;29;20188;-72
2022/08/05 12:29:25;;;;;;;6.03;4.78;;;38.90;62.40;;;;;;4883848;29;20580;-71
2022/08/05 12:31:59;;;;;;;7.95;4.97;;;39.00;62.40;;;;;;4883533;29;20299;-71
2022/08/05 12:34:35;;;;;;;7.30;4.80;;;38.60;61.50;;;;;;4883921;29;20256;-73
2022/08/05 12:37:11;;;;;;;5.63;4.30;;;38.60;60.90;;;;;;4883651;29;20208;-71
2022/08/05 12:39:50;;;;;;;18.73;5.82;;;38.70;60.30;;;;;;4883464;29;20207;-71
2022/08/05 12:42:20;;;;;;;12.02;5.50;;;38.80;61.00;;;;;;4898990;29;20208;-71
2022/08/05 12:44:51;;;;;;;7.38;4.50;;;39.00;61.20;;;;;;4913375;29;20279;-74
2022/08/05 12:47:28;;;;;;;7.60;4.70;;;38.20;59.40;;;;;;4900992;29;20223;-75
2022/08/05 12:49:57;;;;;;;5.95;4.65;;;38.00;60.60;;;;;;4901621;29;20204;-73
2022/08/05 12:52:34;;;;;;;14.43;5.20;;;38.30;60.80;;;;;;4901746;29;20199;-71
2022/08/05 12:55:23;;;;;;;4.88;4.38;;;38.80;59.60;;;;;;4900426;29;20223;-71
2022/08/05 12:57:56;;;;;;;7.97;4.53;;;39.10;59.30;;;;;;4901402;29;20207;-73
2022/08/05 13:00:45;;;;;;;5.82;4.22;;;39.20;58.80;;;;;;4915874;29;20534;-75
2022/08/05 13:03:38;;;;;;;8.80;4.10;;;39.10;58.10;;;;;;4913513;29;20222;-72
2022/08/05 13:06:18;;;;;;;5.55;3.90;;;38.90;58.80;;;;;;4911980;29;20260;-72
2022/08/05 13:08:46;;;;;;;4.63;4.07;;;39.20;57.90;;;;;;4914448;29;20637;-72
2022/08/05 13:11:22;;;;;;;5.60;3.83;;;39.30;58.50;;;;;;4911069;29;20263;-71
2022/08/05 13:14:21;;;;;;;15.02;4.55;;;39.70;57.10;;;;;;4897520;29;20199;-73
2022/08/05 13:17:05;;;;;;;5.45;4.10;;;39.80;56.50;;;;;;4899932;29;20192;-75
2022/08/05 13:19:32;;;;;;;7.35;3.97;;;39.70;56.90;;;;;;4898082;29;20226;-75
2022/08/05 13:22:20;;;;;;;8.18;4.60;;;39.80;55.80;;;;;;4879221;29;20223;-73
2022/08/05 13:24:59;;;;;;;5.72;3.83;;;39.60;57.00;;;;;;4896901;29;20548;-74
2022/08/05 13:27:38;;;;;;;6.57;4.78;;;39.50;55.80;;;;;;4876227;29;20615;-72
2022/08/05 13:30:08;;;;;;;5.85;3.90;;;39.30;56.30;;;;;;4893657;29;20199;-71
2022/08/05 13:32:55;;;;;;;5.93;3.97;;;39.10;57.60;;;;;;4885240;29;20189;-71
2022/08/05 13:35:27;;;;;;;4.63;4.22;;;39.60;56.90;;;;;;4876365;29;20205;-73
2022/08/05 13:38:13;;;;;;;5.82;4.15;;;39.60;56.30;;;;;;4873039;29;20193;-71
2022/08/05 13:40:57;;;;;;;8.48;4.72;;;39.50;55.60;;;;;;4891794;29;20534;-71
2022/08/05 13:43:25;;;;;;;5.45;4.18;;;39.20;55.70;;;;;;4894753;29;20642;-71
2022/08/05 13:46:13;;;;;;;5.45;3.90;;;39.20;56.10;;;;;;4891857;29;20196;-71
2022/08/05 13:48:40;;;;;;;6.97;4.65;;;38.80;56.70;;;;;;4896805;29;20196;-72
2022/08/05 13:51:31;;;;;;;6.10;4.30;;;38.60;56.30;;;;;;4877901;29;20711;-71
2022/08/05 13:54:11;;;;;;;4.50;4.10;;;38.40;57.20;;;;;;4878260;29;20188;-71
2022/08/05 13:56:42;;;;;;;14.65;5.50;;;38.80;57.10;;;;;;4879783;29;20279;-72
2022/08/05 13:59:21;;;;;;;5.45;4.22;;;38.80;57.10;;;;;;4879438;29;20239;-70
2022/08/05 14:01:52;;;;;;;9.60;4.55;;;39.10;57.40;;;;;;4893761;29;20326;-73
2022/08/05 14:07:27;;;;;;;6.05;4.10;;;39.80;55.80;;;;;;4880529;29;20228;-72
2022/08/05 14:10:17;;;;;;;8.32;4.57;;;39.00;56.20;;;;;;4876593;29;20190;-72